createdAt,value
2018-03-23T00:02:11.321Z,-0.20
2018-03-23T00:04:41.631Z,-0.20
2018-03-23T00:07:11.819Z,-0.30
2018-03-23T00:09:42.186Z,-0.20
2018-03-23T00:12:22.703Z,-0.20
2018-03-23T00:14:54.670Z,-0.20
2018-03-23T00:17:49.099Z,-0.30
2018-03-23T00:26:13.274Z,-0.20
2018-03-23T00:28:44.401Z,-0.30
2018-03-23T00:31:21.666Z,-0.40
2018-03-23T00:37:04.946Z,-0.30
2018-03-23T00:39:35.251Z,-0.30
2018-03-23T00:42:09.541Z,-0.30
2018-03-23T00:44:39.770Z,-0.30
2018-03-23T00:47:10.132Z,-0.20
2018-03-23T00:49:40.477Z,-0.20
2018-03-23T00:52:22.630Z,-0.20
2018-03-23T00:54:52.793Z,-0.20
2018-03-23T00:57:35.671Z,-0.20
2018-03-23T01:00:05.035Z,-0.10
2018-03-23T01:03:00.276Z,-0.20
2018-03-23T01:05:30.594Z,-0.20
2018-03-23T01:08:19.937Z,-0.20
2018-03-23T01:10:53.449Z,-0.20
2018-03-23T01:16:17.663Z,-0.20
2018-03-23T01:18:51.001Z,-0.10
2018-03-23T01:24:21.412Z,-0.10
2018-03-23T01:26:51.713Z,-0.10
2018-03-23T01:29:21.752Z,-0.10
2018-03-23T01:31:51.897Z,0.00
2018-03-23T01:34:22.511Z,-0.10
2018-03-23T01:36:52.570Z,-0.10
2018-03-23T01:39:25.222Z,-0.10
2018-03-23T01:41:55.261Z,-0.10
2018-03-23T01:44:25.589Z,0.00
2018-03-23T01:46:55.840Z,0.00
2018-03-23T01:49:25.917Z,0.00
2018-03-23T01:51:56.261Z,0.00
2018-03-23T01:54:26.295Z,0.00
2018-03-23T01:56:56.305Z,0.00
2018-03-23T01:59:27.252Z,0.00
2018-03-23T02:01:57.280Z,0.00
2018-03-23T02:04:27.322Z,0.00
2018-03-23T02:06:57.339Z,0.00
2018-03-23T02:09:27.381Z,0.00
2018-03-23T02:11:57.606Z,0.00
2018-03-23T02:14:28.577Z,0.00
2018-03-23T02:16:59.556Z,0.10
2018-03-23T02:19:29.308Z,0.00
2018-03-23T02:21:59.607Z,0.10
2018-03-23T02:24:30.170Z,0.10
2018-03-23T02:27:00.461Z,0.10
2018-03-23T02:29:30.570Z,0.10
2018-03-23T02:32:00.500Z,0.10
2018-03-23T02:34:31.267Z,0.00
2018-03-23T02:37:02.171Z,0.00
2018-03-23T02:39:32.207Z,0.00
2018-03-23T02:42:02.259Z,0.10
2018-03-23T02:44:32.489Z,0.10
2018-03-23T02:47:02.647Z,0.10
2018-03-23T02:49:32.696Z,0.10
2018-03-23T02:52:02.950Z,0.10
2018-03-23T02:54:33.185Z,0.10
2018-03-23T02:57:03.426Z,0.00
2018-03-23T02:59:33.662Z,0.10
2018-03-23T03:02:03.633Z,0.10
2018-03-23T03:04:33.685Z,0.10
2018-03-23T03:07:04.033Z,0.10
2018-03-23T03:09:34.446Z,0.10
2018-03-23T03:12:04.703Z,0.10
2018-03-23T03:14:35.589Z,0.00
2018-03-23T03:17:06.060Z,0.10
2018-03-23T03:19:36.107Z,0.10
2018-03-23T03:22:06.526Z,0.10
2018-03-23T03:24:36.592Z,0.10
2018-03-23T03:27:06.647Z,0.10
2018-03-23T03:29:36.952Z,0.10
2018-03-23T03:32:06.953Z,0.10
2018-03-23T03:34:37.086Z,0.10
2018-03-23T03:37:07.132Z,0.10
2018-03-23T03:39:38.141Z,0.10
2018-03-23T03:42:08.224Z,0.10
2018-03-23T03:44:38.297Z,0.10
2018-03-23T03:47:09.075Z,0.10
2018-03-23T03:49:39.417Z,0.10
2018-03-23T03:52:09.897Z,0.20
2018-03-23T03:54:39.972Z,0.10
2018-03-23T03:57:10.333Z,0.20
2018-03-23T03:59:40.664Z,0.10
2018-03-23T04:02:10.384Z,0.10
2018-03-23T04:04:40.766Z,0.10
2018-03-23T04:07:11.117Z,0.10
2018-03-23T04:09:41.211Z,0.10
2018-03-23T04:12:12.279Z,0.10
2018-03-23T04:14:42.347Z,0.10
2018-03-23T04:17:12.436Z,0.10
2018-03-23T04:19:43.292Z,0.10
2018-03-23T04:22:13.498Z,0.00
2018-03-23T04:24:43.378Z,0.10
2018-03-23T04:27:14.228Z,0.00
2018-03-23T04:29:44.343Z,0.10
2018-03-23T04:32:14.465Z,0.00
2018-03-23T04:34:44.523Z,0.00
2018-03-23T04:37:14.595Z,0.00
2018-03-23T04:39:44.680Z,0.00
2018-03-23T04:42:15.663Z,0.10
2018-03-23T04:44:45.696Z,0.10
2018-03-23T04:47:15.779Z,0.10
2018-03-23T04:49:45.674Z,0.10
2018-03-23T04:52:16.880Z,0.10
2018-03-23T04:54:46.948Z,0.10
2018-03-23T04:57:16.995Z,0.10
2018-03-23T04:59:46.836Z,0.10
2018-03-23T05:02:16.889Z,0.10
2018-03-23T05:04:47.074Z,0.10
2018-03-23T05:07:17.095Z,0.10
2018-03-23T05:09:47.158Z,0.10
2018-03-23T05:12:16.898Z,0.10
2018-03-23T05:14:46.781Z,0.10
2018-03-23T05:17:17.105Z,0.10
2018-03-23T05:19:48.229Z,0.10
2018-03-23T05:22:18.508Z,0.00
2018-03-23T05:24:49.412Z,0.10
2018-03-23T05:27:19.811Z,0.00
2018-03-23T05:29:49.903Z,0.00
2018-03-23T05:32:20.002Z,0.00
2018-03-23T05:34:50.977Z,0.00
2018-03-23T05:37:21.076Z,0.00
2018-03-23T05:39:52.238Z,0.00
2018-03-23T05:42:23.647Z,0.00
2018-03-23T05:44:53.846Z,0.10
2018-03-23T05:47:24.007Z,0.00
2018-03-23T05:49:55.256Z,0.10
2018-03-23T05:52:25.532Z,0.10
2018-03-23T05:54:55.603Z,0.10
2018-03-23T05:57:25.929Z,0.10
2018-03-23T05:59:55.861Z,0.10
2018-03-23T06:02:26.364Z,0.10
2018-03-23T06:04:56.444Z,0.10
2018-03-23T06:07:27.084Z,0.20
2018-03-23T06:09:57.457Z,0.20
2018-03-23T06:12:27.567Z,0.20
2018-03-23T06:14:57.624Z,0.20
2018-03-23T06:17:27.686Z,0.20
2018-03-23T06:19:57.906Z,0.20
2018-03-23T06:22:28.063Z,0.30
2018-03-23T06:24:57.993Z,0.30
2018-03-23T06:27:28.143Z,0.30
2018-03-23T06:29:58.359Z,0.30
2018-03-23T06:32:28.543Z,0.40
2018-03-23T06:34:59.068Z,0.40
2018-03-23T06:37:29.561Z,0.40
2018-03-23T06:39:59.602Z,0.40
2018-03-23T06:42:34.763Z,0.40
2018-03-23T06:45:04.600Z,0.50
2018-03-23T06:47:34.684Z,0.50
2018-03-23T06:50:04.727Z,0.60
2018-03-23T06:52:35.251Z,0.70
2018-03-23T06:55:07.367Z,0.80
2018-03-23T06:57:42.173Z,0.90
2018-03-23T07:00:15.140Z,0.90
2018-03-23T07:02:46.285Z,1.00
2018-03-23T07:05:18.193Z,1.10
2018-03-23T07:07:48.577Z,1.20
2018-03-23T07:10:19.022Z,1.40
2018-03-23T07:12:50.127Z,1.50
2018-03-23T07:53:32.784Z,3.10
2018-03-23T07:56:02.880Z,3.00
2018-03-23T07:58:33.021Z,2.70
2018-03-23T08:01:22.049Z,2.70
2018-03-23T08:09:51.878Z,2.50
2018-03-23T08:15:50.495Z,2.70
2018-03-23T08:18:30.547Z,2.80
2018-03-23T08:21:00.736Z,3.10
2018-03-23T08:23:31.359Z,3.20
2018-03-23T08:26:02.399Z,3.80
2018-03-23T08:28:32.726Z,3.80
2018-03-23T08:31:03.057Z,3.90
2018-03-23T08:33:33.463Z,3.90
2018-03-23T08:36:03.553Z,3.90
2018-03-23T08:38:34.215Z,3.90
2018-03-23T08:41:22.663Z,3.60
2018-03-23T08:43:52.984Z,3.60
2018-03-23T08:46:23.072Z,3.30
2018-03-23T08:48:53.327Z,3.50
2018-03-23T08:51:23.398Z,3.80
2018-03-23T08:53:53.822Z,4.10
2018-03-23T08:56:23.881Z,4.30
2018-03-23T08:58:54.047Z,4.30
2018-03-23T09:01:24.179Z,4.40
2018-03-23T09:03:54.001Z,4.50
2018-03-23T09:06:24.055Z,4.70
2018-03-23T09:08:54.114Z,5.10
2018-03-23T09:11:25.373Z,5.30
2018-03-23T09:13:55.602Z,5.30
2018-03-23T09:16:25.447Z,5.40
2018-03-23T09:18:58.236Z,5.40
2018-03-23T09:21:28.877Z,5.70
2018-03-23T09:23:59.949Z,6.10
2018-03-23T09:26:30.246Z,6.00
2018-03-23T09:29:01.819Z,6.00
2018-03-23T09:31:31.825Z,5.80
2018-03-23T09:34:01.922Z,5.30
2018-03-23T09:36:51.273Z,5.10
2018-03-23T09:39:21.835Z,5.20
2018-03-23T09:42:11.755Z,5.20
2018-03-23T09:44:43.000Z,5.60
2018-03-23T09:47:14.603Z,6.40
2018-03-23T09:49:51.053Z,6.30
2018-03-23T09:52:22.047Z,6.40
2018-03-23T09:54:52.058Z,6.30
2018-03-23T09:57:27.648Z,6.00
2018-03-23T09:59:57.769Z,6.10
2018-03-23T10:02:31.236Z,6.20
2018-03-23T10:05:01.881Z,6.30
2018-03-23T10:07:32.018Z,6.60
2018-03-23T10:10:02.390Z,6.60
2018-03-23T10:12:32.710Z,6.60
2018-03-23T10:15:03.058Z,6.50
2018-03-23T10:17:33.898Z,6.50
2018-03-23T10:20:03.989Z,6.50
2018-03-23T10:22:34.839Z,6.90
2018-03-23T10:25:04.640Z,7.00
2018-03-23T10:27:34.787Z,7.00
2018-03-23T10:30:04.157Z,7.40
2018-03-23T10:32:35.255Z,6.90
2018-03-23T10:35:05.055Z,6.90
2018-03-23T10:37:35.888Z,6.70
2018-03-23T10:40:05.512Z,6.70
2018-03-23T10:42:36.040Z,6.70
2018-03-23T10:45:05.351Z,7.00
2018-03-23T10:47:35.109Z,6.90
2018-03-23T10:50:04.167Z,6.70
2018-03-23T10:52:34.185Z,6.50
2018-03-23T10:55:03.889Z,6.50
2018-03-23T10:57:34.988Z,6.20
2018-03-23T11:00:04.160Z,6.10
2018-03-23T11:02:43.928Z,6.00
2018-03-23T11:05:15.980Z,5.70
2018-03-23T11:07:46.023Z,5.50
2018-03-23T11:10:16.257Z,5.40
2018-03-23T11:12:46.125Z,5.60
2018-03-23T11:15:16.243Z,5.80
2018-03-23T11:17:46.269Z,6.10
2018-03-23T11:20:16.515Z,6.10
2018-03-23T11:22:47.169Z,6.20
2018-03-23T11:25:17.219Z,6.40
2018-03-23T11:27:47.382Z,6.60
2018-03-23T11:30:17.438Z,6.60
2018-03-23T11:32:47.705Z,6.90
2018-03-23T11:35:18.727Z,7.50
2018-03-23T11:37:48.955Z,7.40
2018-03-23T11:40:18.980Z,7.60
2018-03-23T11:42:49.129Z,7.40
2018-03-23T11:45:20.263Z,7.30
2018-03-23T11:47:56.259Z,7.30
2018-03-23T11:50:28.733Z,7.40
2018-03-23T11:53:00.035Z,7.50
2018-03-23T11:55:30.445Z,7.50
2018-03-23T11:58:01.158Z,7.80
2018-03-23T12:00:31.709Z,7.40
2018-03-23T12:03:02.604Z,7.20
2018-03-23T12:05:33.704Z,7.10
2018-03-23T12:08:04.057Z,7.00
2018-03-23T12:10:34.929Z,7.10
2018-03-23T12:15:54.222Z,7.30
2018-03-23T12:18:24.614Z,7.40
2018-03-23T12:20:59.094Z,7.50
2018-03-23T12:23:29.254Z,7.50
2018-03-23T12:25:59.570Z,7.10
2018-03-23T12:28:29.665Z,7.00
2018-03-23T12:30:59.574Z,7.00
2018-03-23T12:33:29.645Z,7.20
2018-03-23T12:35:59.818Z,7.30
2018-03-23T12:38:30.709Z,7.40
2018-03-23T12:41:00.940Z,7.90
2018-03-23T12:43:37.671Z,8.60
2018-03-23T12:46:07.925Z,8.60
2018-03-23T12:51:20.660Z,8.90
2018-03-23T12:56:52.139Z,8.00
2018-03-23T12:59:22.204Z,8.00
2018-03-23T13:01:52.544Z,8.10
2018-03-23T13:04:22.592Z,8.10
2018-03-23T13:06:53.832Z,7.90
2018-03-23T13:09:23.943Z,8.30
2018-03-23T13:11:55.557Z,8.30
2018-03-23T13:14:30.159Z,8.20
2018-03-23T13:17:00.501Z,8.10
2018-03-23T13:19:30.716Z,7.80
2018-03-23T13:22:01.225Z,7.80
2018-03-23T13:24:31.492Z,7.40
2018-03-23T13:27:01.733Z,7.30
2018-03-23T13:29:35.028Z,7.60
2018-03-23T13:32:05.399Z,7.60
2018-03-23T13:34:47.646Z,8.10
2018-03-23T13:37:19.395Z,8.10
2018-03-23T13:39:49.418Z,8.70
2018-03-23T13:42:23.031Z,9.00
2018-03-23T13:44:53.075Z,9.00
2018-03-23T13:47:23.118Z,8.60
2018-03-23T13:49:54.698Z,8.40
2018-03-23T13:52:24.841Z,8.00
2018-03-23T13:54:54.873Z,7.70
2018-03-23T13:57:24.957Z,7.90
2018-03-23T14:00:00.266Z,8.30
2018-03-23T14:02:35.886Z,8.40
2018-03-23T14:05:05.291Z,8.60
2018-03-23T14:07:35.343Z,8.80
2018-03-23T14:10:07.714Z,8.80
2018-03-23T14:12:39.852Z,8.90
2018-03-23T14:15:10.513Z,9.00
2018-03-23T14:17:40.670Z,9.70
2018-03-23T14:20:10.782Z,10.30
2018-03-23T14:22:41.240Z,9.90
2018-03-23T14:25:11.449Z,9.20
2018-03-23T14:27:43.045Z,8.20
2018-03-23T14:30:12.973Z,8.20
2018-03-23T14:32:43.025Z,8.00
2018-03-23T14:35:14.113Z,7.50
2018-03-23T14:37:44.585Z,7.50
2018-03-23T14:40:15.254Z,7.50
2018-03-23T14:42:45.387Z,7.40
2018-03-23T14:45:23.318Z,7.20
2018-03-23T14:47:53.362Z,7.20
2018-03-23T14:50:24.169Z,7.30
2018-03-23T14:53:29.337Z,7.10
2018-03-23T14:56:07.594Z,6.90
2018-03-23T14:58:44.736Z,6.90
2018-03-23T15:01:15.222Z,6.60
2018-03-23T15:03:45.278Z,6.20
2018-03-23T15:06:15.861Z,6.00
2018-03-23T15:08:50.232Z,6.00
2018-03-23T15:14:16.396Z,5.80
2018-03-23T15:16:46.356Z,5.70
2018-03-23T15:19:16.411Z,5.50
2018-03-23T15:21:54.546Z,5.30
2018-03-23T15:24:24.872Z,5.20
2018-03-23T15:26:55.195Z,5.20
2018-03-23T15:29:28.369Z,5.10
2018-03-23T15:35:24.537Z,4.90
2018-03-23T15:37:54.640Z,4.80
2018-03-23T15:40:24.716Z,4.60
2018-03-23T15:51:48.091Z,4.60
2018-03-23T15:54:22.468Z,4.60
2018-03-23T16:03:00.154Z,4.70
2018-03-23T16:15:40.860Z,4.50
2018-03-23T16:24:22.259Z,4.30
2018-03-23T16:26:52.616Z,4.20
2018-03-23T16:29:24.371Z,4.20
2018-03-23T16:31:57.898Z,4.10
2018-03-23T16:34:28.535Z,4.00
2018-03-23T16:46:10.539Z,3.60
2018-03-23T16:48:40.581Z,3.50
2018-03-23T16:57:39.402Z,3.20
2018-03-23T17:06:34.023Z,2.90
2018-03-23T17:09:03.655Z,2.90
2018-03-23T17:11:35.007Z,2.90
2018-03-23T17:17:31.535Z,2.90
2018-03-23T17:20:01.611Z,2.90
2018-03-23T17:22:32.267Z,2.90
2018-03-23T17:25:02.745Z,2.80
2018-03-23T17:31:01.050Z,2.70
2018-03-23T17:39:52.548Z,2.50
2018-03-23T17:48:44.871Z,2.30
2018-03-23T17:51:22.044Z,2.20
2018-03-23T17:53:53.622Z,2.10
2018-03-23T18:02:35.254Z,1.80
2018-03-23T18:09:15.660Z,1.70
2018-03-23T18:12:06.160Z,1.60
2018-03-23T18:15:55.714Z,1.60
2018-03-23T18:18:26.096Z,1.50
2018-03-23T18:21:22.130Z,1.50
2018-03-23T18:27:04.039Z,1.40
2018-03-23T18:29:34.293Z,1.40
2018-03-23T18:32:04.677Z,1.30
2018-03-23T18:40:56.380Z,1.30
2018-03-23T18:49:43.105Z,1.20
2018-03-23T18:52:13.078Z,1.20
2018-03-23T18:54:43.824Z,1.20
2018-03-23T18:57:14.308Z,1.20
2018-03-23T18:59:45.271Z,1.20
2018-03-23T19:02:15.433Z,1.10
2018-03-23T19:04:45.479Z,1.10
2018-03-23T19:16:36.398Z,1.00
2018-03-23T19:19:07.300Z,1.00
2018-03-23T19:21:38.227Z,0.90
2018-03-23T19:24:09.355Z,0.80
2018-03-23T19:26:39.735Z,0.80
2018-03-23T19:29:09.829Z,0.70
2018-03-23T19:31:40.281Z,0.60
2018-03-23T19:37:11.447Z,0.40
2018-03-23T19:39:41.540Z,0.30
2018-03-23T19:48:24.910Z,0.10
2018-03-23T19:54:04.931Z,0.00
2018-03-23T19:59:56.034Z,0.00
2018-03-23T20:05:31.662Z,0.00
2018-03-23T20:08:19.676Z,0.10
2018-03-23T20:11:08.679Z,0.00
2018-03-23T20:20:10.871Z,-0.20
2018-03-23T20:22:42.695Z,-0.30
2018-03-23T20:25:12.849Z,-0.40
2018-03-23T20:30:49.759Z,-0.60
2018-03-23T20:33:20.056Z,-0.60
2018-03-23T20:35:49.835Z,-0.90
2018-03-23T20:38:19.920Z,-1.00
2018-03-23T20:40:49.979Z,-1.10
2018-03-23T20:43:20.334Z,-1.10
2018-03-23T20:45:50.500Z,-1.20
2018-03-23T20:51:44.401Z,-1.20
2018-03-23T20:54:31.643Z,-1.10
2018-03-23T20:57:02.110Z,-1.10
2018-03-23T20:59:32.180Z,-1.20
2018-03-23T21:02:02.295Z,-1.20
2018-03-23T21:04:45.547Z,-1.30
2018-03-23T21:07:16.265Z,-1.30
2018-03-23T21:10:10.003Z,-1.30
2018-03-23T21:12:40.562Z,-1.30
2018-03-23T21:15:13.135Z,-1.30
2018-03-23T21:17:48.040Z,-1.20
2018-03-23T21:20:19.033Z,-1.30
2018-03-23T21:22:49.868Z,-1.20
2018-03-23T21:25:23.355Z,-1.30
2018-03-23T21:27:54.303Z,-1.30
2018-03-23T21:33:34.711Z,-1.30
2018-03-23T21:36:04.480Z,-1.30
2018-03-23T21:38:34.612Z,-1.30
2018-03-23T21:41:18.563Z,-1.30
2018-03-23T21:43:50.456Z,-1.40
2018-03-23T21:46:20.743Z,-1.40
2018-03-23T21:48:51.104Z,-1.50
2018-03-23T21:51:47.554Z,-1.40
2018-03-23T21:54:17.853Z,-1.40
2018-03-23T21:57:07.949Z,-1.30
2018-03-23T21:59:38.259Z,-1.30
2018-03-23T22:02:08.163Z,-1.20
2018-03-23T22:04:38.049Z,-1.00
2018-03-23T22:07:27.420Z,-0.90
2018-03-23T22:13:07.687Z,-0.60
2018-03-23T22:15:38.318Z,-0.30
2018-03-23T22:18:08.392Z,-0.20
2018-03-23T22:27:11.611Z,0.30
2018-03-23T22:29:42.626Z,0.40
2018-03-23T22:32:13.054Z,0.60
2018-03-23T22:37:54.870Z,0.70
2018-03-23T22:40:26.013Z,0.70
2018-03-23T22:45:52.286Z,0.70
2018-03-23T22:48:22.405Z,0.70
2018-03-23T22:50:52.816Z,0.70
2018-03-23T22:53:23.080Z,0.70
2018-03-23T22:59:02.630Z,0.60
2018-03-23T23:01:32.756Z,0.60
2018-03-23T23:04:08.454Z,0.60
2018-03-23T23:06:39.971Z,0.50
2018-03-23T23:09:09.972Z,0.40
2018-03-23T23:11:40.286Z,0.40
2018-03-23T23:14:10.501Z,0.40
2018-03-23T23:16:41.889Z,0.40
2018-03-23T23:19:12.453Z,0.40
2018-03-23T23:21:43.566Z,0.50
2018-03-23T23:24:13.673Z,0.50
2018-03-23T23:29:51.211Z,0.60
2018-03-23T23:32:22.181Z,0.60
2018-03-23T23:34:52.511Z,0.60
2018-03-23T23:37:22.755Z,0.60
2018-03-23T23:46:06.838Z,0.70
2018-03-23T23:54:45.402Z,0.80
